Time,TemperatureF,DewpointF,PressureIn,WindDirection,WindDirectionDegrees,WindSpeedMPH,WindSpeedGustMPH,Humidity,HourlyPrecipIn,Conditions,Clouds,dailyrainin,SolarRadiationWatts/m^2,SoftwareType,DateUTC
2013-04-14 00:04:00,67.2,28.1,30.01,SSE,156,6.0,0.0,23,0.00,,,0.00,0,WeatherHawk,2013-04-14 05:04:00,
2013-04-14 00:09:00,66.9,27.9,30.01,South,175,3.0,0.0,23,0.00,,,0.00,0,WeatherHawk,2013-04-14 05:09:00,
2013-04-14 00:14:00,67.1,28.1,30.00,SE,142,6.0,0.0,23,0.00,,,0.00,0,WeatherHawk,2013-04-14 05:14:00,
2013-04-14 00:19:00,67.0,27.9,30.00,SE,132,6.0,-999.0,23,0.00,,,0.00,0,WeatherHawk,2013-04-14 05:19:00,
2013-04-14 00:24:00,66.7,27.7,30.00,SE,127,5.0,0.0,23,0.00,,,0.00,0,WeatherHawk,2013-04-14 05:24:00,
2013-04-14 00:29:00,66.6,28.6,30.00,SSE,154,4.0,0.0,24,0.00,,,0.00,0,WeatherHawk,2013-04-14 05:29:00,
2013-04-14 00:34:00,66.7,28.8,30.00,SE,146,7.0,0.0,24,0.00,,,0.00,1,WeatherHawk,2013-04-14 05:34:00,
2013-04-14 00:39:00,67.0,29.0,29.99,SE,133,8.0,-999.0,24,0.00,,,0.00,1,WeatherHawk,2013-04-14 05:39:00,
2013-04-14 00:44:00,66.3,29.4,30.00,SSE,153,5.0,-999.0,25,0.00,,,0.00,0,WeatherHawk,2013-04-14 05:44:00,
2013-04-14 00:49:00,66.6,29.7,30.00,SE,129,7.0,-999.0,25,0.00,,,0.00,0,WeatherHawk,2013-04-14 05:49:00,
2013-04-14 00:54:00,66.2,29.4,29.99,SSE,164,4.0,0.0,25,0.00,,,0.00,0,WeatherHawk,2013-04-14 05:54:00,
2013-04-14 00:59:00,66.9,29.9,30.00,South,170,7.0,0.0,25,0.00,,,0.00,0,WeatherHawk,2013-04-14 05:59:00,
2013-04-14 01:04:00,66.5,30.5,29.99,SE,125,5.0,-999.0,26,0.00,,,0.00,0,WeatherHawk,2013-04-14 06:04:00,
2013-04-14 01:09:00,66.3,30.4,30.00,SE,145,3.0,-999.0,26,0.00,,,0.00,1,WeatherHawk,2013-04-14 06:09:00,
2013-04-14 01:14:00,66.5,31.5,30.00,SSW,196,5.0,-999.0,27,0.00,,,0.00,0,WeatherHawk,2013-04-14 06:14:00,
2013-04-14 01:19:00,66.6,31.6,30.00,SE,127,8.0,0.0,27,0.00,,,0.00,0,WeatherHawk,2013-04-14 06:19:00,
2013-04-14 01:24:00,66.4,31.4,30.00,SSE,157,7.0,0.0,27,0.00,,,0.00,1,WeatherHawk,2013-04-14 06:24:00,
2013-04-14 01:29:00,66.0,32.0,30.00,SSE,158,4.0,0.0,28,0.00,,,0.00,0,WeatherHawk,2013-04-14 06:29:00,
2013-04-14 01:34:00,65.9,32.8,30.00,SSE,162,6.0,-999.0,29,0.00,,,0.00,0,WeatherHawk,2013-04-14 06:34:00,
2013-04-14 01:39:00,65.6,32.5,30.00,SSE,152,5.0,-999.0,29,0.00,,,0.00,0,WeatherHawk,2013-04-14 06:39:00,
2013-04-14 01:44:00,65.2,33.0,29.99,SSE,153,3.0,0.0,30,0.00,,,0.00,1,WeatherHawk,2013-04-14 06:44:00,
2013-04-14 01:49:00,65.2,33.0,29.99,SSE,154,1.0,0.0,30,0.00,,,0.00,0,WeatherHawk,2013-04-14 06:49:00,
2013-04-14 01:55:00,65.2,33.8,29.99,South,184,5.0,-999.0,31,0.00,,,0.00,1,WeatherHawk,2013-04-14 06:55:00,
2013-04-14 02:00:00,65.2,33.8,30.00,South,190,5.0,0.0,31,0.00,,,0.00,1,WeatherHawk,2013-04-14 07:00:00,
2013-04-14 02:05:00,64.9,33.6,29.99,South,175,5.0,0.0,31,0.00,,,0.00,0,WeatherHawk,2013-04-14 07:05:00,
2013-04-14 02:10:00,65.0,33.6,30.00,SSE,154,5.0,0.0,31,0.00,,,0.00,0,WeatherHawk,2013-04-14 07:10:00,
2013-04-14 02:15:00,64.8,33.5,29.99,SSE,160,4.0,0.0,31,0.00,,,0.00,0,WeatherHawk,2013-04-14 07:15:00,
2013-04-14 02:20:00,64.8,33.4,29.99,South,172,2.0,0.0,31,0.00,,,0.00,0,WeatherHawk,2013-04-14 07:20:00,
2013-04-14 02:25:00,64.2,33.0,29.99,South,169,0.0,0.0,31,0.00,,,0.00,0,WeatherHawk,2013-04-14 07:25:00,
2013-04-14 02:30:00,64.5,34.0,29.99,South,173,3.0,0.0,32,0.00,,,0.00,1,WeatherHawk,2013-04-14 07:30:00,
2013-04-14 02:35:00,64.4,33.9,29.98,South,186,0.0,0.0,32,0.00,,,0.00,1,WeatherHawk,2013-04-14 07:35:00,
2013-04-14 02:40:00,64.6,34.1,29.98,SE,145,3.0,0.0,32,0.00,,,0.00,0,WeatherHawk,2013-04-14 07:40:00,
2013-04-14 02:46:00,64.5,34.0,29.98,South,170,4.0,0.0,32,0.00,,,0.00,0,WeatherHawk,2013-04-14 07:46:00,
2013-04-14 02:52:00,64.3,33.9,29.98,SSE,148,0.0,0.0,32,0.00,,,0.00,1,WeatherHawk,2013-04-14 07:52:00,
2013-04-14 02:57:00,64.3,33.0,29.98,SSE,153,1.0,0.0,31,0.00,,,0.00,1,WeatherHawk,2013-04-14 07:57:00,
2013-04-14 03:02:00,64.2,33.0,29.97,South,180,4.0,0.0,31,0.00,,,0.00,0,WeatherHawk,2013-04-14 08:02:00,
2013-04-14 03:07:00,64.2,32.9,29.97,SE,126,2.0,0.0,31,0.00,,,0.00,1,WeatherHawk,2013-04-14 08:07:00,
2013-04-14 03:12:00,64.2,32.9,29.97,SSW,211,2.0,0.0,31,0.00,,,0.00,0,WeatherHawk,2013-04-14 08:12:00,
2013-04-14 03:18:00,64.0,32.0,29.98,South,181,0.0,0.0,30,0.00,,,0.00,0,WeatherHawk,2013-04-14 08:18:00,
2013-04-14 03:24:00,63.5,32.3,29.96,South,177,0.0,0.0,31,0.00,,,0.00,1,WeatherHawk,2013-04-14 08:24:00,
2013-04-14 03:29:00,63.7,32.5,29.97,SSE,155,0.0,0.0,31,0.00,,,0.00,0,WeatherHawk,2013-04-14 08:29:00,
2013-04-14 03:34:00,63.2,32.1,29.97,SSE,160,0.0,0.0,31,0.00,,,0.00,1,WeatherHawk,2013-04-14 08:34:00,
2013-04-14 03:39:00,63.5,33.1,29.97,SE,141,2.0,0.0,32,0.00,,,0.00,1,WeatherHawk,2013-04-14 08:39:00,
2013-04-14 03:44:00,63.1,32.8,29.97,SE,130,2.0,0.0,32,0.00,,,0.00,0,WeatherHawk,2013-04-14 08:44:00,
2013-04-14 03:49:00,63.0,32.7,29.96,SE,131,4.0,-999.0,32,0.00,,,0.00,1,WeatherHawk,2013-04-14 08:49:00,
2013-04-14 03:54:00,62.4,32.9,29.96,SE,126,1.0,0.0,33,0.00,,,0.00,1,WeatherHawk,2013-04-14 08:54:00,
2013-04-14 03:59:00,62.7,33.9,29.96,SE,146,7.0,-999.0,34,0.00,,,0.00,0,WeatherHawk,2013-04-14 08:59:00,
2013-04-14 04:04:00,62.2,33.5,29.95,SE,143,4.0,0.0,34,0.00,,,0.00,1,WeatherHawk,2013-04-14 09:04:00,
2013-04-14 04:09:00,62.2,33.5,29.95,SE,143,4.0,0.0,34,0.00,,,0.00,1,WeatherHawk,2013-04-14 09:09:00,
2013-04-14 04:14:00,61.9,33.3,29.94,South,184,4.0,0.0,34,0.00,,,0.00,1,WeatherHawk,2013-04-14 09:14:00,
2013-04-14 04:19:00,61.7,33.8,29.94,SSE,155,7.0,0.0,35,0.00,,,0.00,0,WeatherHawk,2013-04-14 09:19:00,
2013-04-14 04:24:00,61.6,34.4,29.94,South,175,3.0,0.0,36,0.00,,,0.00,0,WeatherHawk,2013-04-14 09:24:00,
2013-04-14 04:29:00,61.5,34.3,29.95,SE,134,2.0,0.0,36,0.00,,,0.00,0,WeatherHawk,2013-04-14 09:29:00,
2013-04-14 04:34:00,61.5,34.3,29.94,SSE,160,4.0,0.0,36,0.00,,,0.00,0,WeatherHawk,2013-04-14 09:34:00,
2013-04-14 04:39:00,61.2,34.7,29.94,SSE,150,3.0,0.0,37,0.00,,,0.00,0,WeatherHawk,2013-04-14 09:39:00,
2013-04-14 04:44:00,60.3,35.2,29.94,East,99,2.0,0.0,39,0.00,,,0.00,1,WeatherHawk,2013-04-14 09:44:00,
2013-04-14 04:49:00,60.6,36.1,29.94,ESE,115,3.0,-999.0,40,0.00,,,0.00,0,WeatherHawk,2013-04-14 09:49:00,
2013-04-14 04:54:00,60.1,36.3,29.94,SE,125,0.0,0.0,41,0.00,,,0.00,0,WeatherHawk,2013-04-14 09:54:00,
2013-04-14 04:59:00,60.1,36.9,29.95,ESE,112,1.0,0.0,42,0.00,,,0.00,0,WeatherHawk,2013-04-14 09:59:00,
2013-04-14 05:04:00,59.9,36.8,29.94,SE,129,0.0,-999.0,42,0.00,,,0.00,1,WeatherHawk,2013-04-14 10:04:00,
2013-04-14 05:09:00,59.3,36.8,29.94,South,187,0.0,0.0,43,0.00,,,0.00,0,WeatherHawk,2013-04-14 10:09:00,
2013-04-14 05:14:00,59.5,37.0,29.95,ESE,120,2.0,-999.0,43,0.00,,,0.00,0,WeatherHawk,2013-04-14 10:14:00,
2013-04-14 05:19:00,59.5,37.6,29.93,SE,140,4.0,0.0,44,0.00,,,0.00,1,WeatherHawk,2013-04-14 10:19:00,
2013-04-14 05:24:00,59.0,37.7,29.95,SE,146,4.0,-999.0,45,0.00,,,0.00,0,WeatherHawk,2013-04-14 10:24:00,
2013-04-14 05:29:00,58.6,37.9,29.93,ESE,119,4.0,0.0,46,0.00,,,0.00,0,WeatherHawk,2013-04-14 10:29:00,
2013-04-14 05:34:00,58.8,38.1,29.94,SE,130,4.0,0.0,46,0.00,,,0.00,1,WeatherHawk,2013-04-14 10:34:00,
2013-04-14 05:39:00,58.7,38.5,29.94,SE,128,4.0,0.0,47,0.00,,,0.00,0,WeatherHawk,2013-04-14 10:39:00,
2013-04-14 05:44:00,58.8,39.1,29.94,SE,143,4.0,-999.0,48,0.00,,,0.00,0,WeatherHawk,2013-04-14 10:44:00,
2013-04-14 05:49:00,58.5,38.9,29.94,SE,143,3.0,0.0,48,0.00,,,0.00,0,WeatherHawk,2013-04-14 10:49:00,
2013-04-14 05:54:00,58.6,39.5,29.94,SE,145,5.0,0.0,49,0.00,,,0.00,1,WeatherHawk,2013-04-14 10:54:00,
2013-04-14 05:59:00,58.2,39.2,29.94,SSE,147,3.0,0.0,49,0.00,,,0.00,0,WeatherHawk,2013-04-14 10:59:00,
2013-04-14 06:04:00,58.4,39.9,29.94,South,176,0.0,0.0,50,0.00,,,0.00,1,WeatherHawk,2013-04-14 11:04:00,
2013-04-14 06:09:00,58.3,40.3,29.95,SE,137,0.0,0.0,51,0.00,,,0.00,0,WeatherHawk,2013-04-14 11:09:00,
2013-04-14 06:14:00,57.7,39.7,29.95,SE,131,0.0,0.0,51,0.00,,,0.00,0,WeatherHawk,2013-04-14 11:14:00,
2013-04-14 06:19:00,58.1,41.1,29.95,ESE,113,2.0,0.0,53,0.00,,,0.00,0,WeatherHawk,2013-04-14 11:19:00,
2013-04-14 06:24:00,58.3,41.2,29.95,SE,139,4.0,0.0,53,0.00,,,0.00,0,WeatherHawk,2013-04-14 11:24:00,
2013-04-14 06:29:00,58.5,41.9,29.95,SE,130,3.0,0.0,54,0.00,,,0.00,0,WeatherHawk,2013-04-14 11:29:00,
2013-04-14 06:34:00,57.9,40.9,29.95,SE,126,2.0,0.0,53,0.00,,,0.00,0,WeatherHawk,2013-04-14 11:34:00,
2013-04-14 06:39:00,58.6,42.0,29.95,SE,140,2.0,0.0,54,0.00,,,0.00,0,WeatherHawk,2013-04-14 11:39:00,
2013-04-14 06:44:00,58.2,41.7,29.94,ESE,121,4.0,0.0,54,0.00,,,0.00,0,WeatherHawk,2013-04-14 11:44:00,
2013-04-14 06:49:00,58.5,42.4,29.95,SSE,155,2.0,0.0,55,0.00,,,0.00,1,WeatherHawk,2013-04-14 11:49:00,
2013-04-14 06:54:00,58.4,42.3,29.94,ESE,108,4.0,0.0,55,0.00,,,0.00,3,WeatherHawk,2013-04-14 11:54:00,
2013-04-14 06:59:00,58.7,42.5,29.95,East,98,5.0,0.0,55,0.00,,,0.00,5,WeatherHawk,2013-04-14 11:59:00,
2013-04-14 07:04:00,58.6,43.5,29.95,SE,142,6.0,0.0,57,0.00,,,0.00,8,WeatherHawk,2013-04-14 12:04:00,
2013-04-14 07:09:00,58.5,43.3,29.95,SSE,160,3.0,0.0,57,0.00,,,0.00,13,WeatherHawk,2013-04-14 12:09:00,
2013-04-14 07:14:00,58.8,44.0,29.95,SE,131,3.0,0.0,58,0.00,,,0.00,20,WeatherHawk,2013-04-14 12:14:00,
2013-04-14 07:19:00,58.9,44.2,29.95,SSE,158,5.0,0.0,58,0.00,,,0.00,28,WeatherHawk,2013-04-14 12:19:00,
2013-04-14 07:24:00,59.4,44.6,29.95,SE,127,3.0,0.0,58,0.00,,,0.00,37,WeatherHawk,2013-04-14 12:24:00,
2013-04-14 07:29:00,59.6,44.8,29.95,SE,145,5.0,0.0,58,0.00,,,0.00,47,WeatherHawk,2013-04-14 12:29:00,
2013-04-14 07:34:00,59.8,44.6,29.95,ESE,113,3.0,0.0,57,0.00,,,0.00,61,WeatherHawk,2013-04-14 12:34:00,
2013-04-14 07:39:00,59.9,44.7,29.95,SSE,147,5.0,0.0,57,0.00,,,0.00,74,WeatherHawk,2013-04-14 12:39:00,
2013-04-14 07:44:00,60.2,44.4,29.95,SE,144,5.0,-999.0,56,0.00,,,0.00,83,WeatherHawk,2013-04-14 12:44:00,
2013-04-14 07:49:00,60.5,45.2,29.95,SE,140,6.0,0.0,57,0.00,,,0.00,98,WeatherHawk,2013-04-14 12:49:00,
2013-04-14 07:54:00,58.8,42.2,29.96,ESE,116,3.0,0.0,54,0.00,,,0.00,111,WeatherHawk,2013-04-14 12:54:00,
2013-04-14 07:59:00,59.4,42.7,29.94,SE,130,4.0,-999.0,54,0.00,,,0.00,124,WeatherHawk,2013-04-14 12:59:00,
2013-04-14 08:04:00,59.2,41.6,29.96,East,100,3.0,0.0,52,0.00,,,0.00,137,WeatherHawk,2013-04-14 13:04:00,
2013-04-14 08:09:00,59.0,41.4,29.96,SE,132,4.0,0.0,52,0.00,,,0.00,150,WeatherHawk,2013-04-14 13:09:00,
2013-04-14 08:14:00,59.5,39.3,29.96,SE,138,2.0,0.0,47,0.00,,,0.00,158,WeatherHawk,2013-04-14 13:14:00,
2013-04-14 08:19:00,60.8,41.6,29.97,SE,133,1.0,0.0,49,0.00,,,0.00,177,WeatherHawk,2013-04-14 13:19:00,
2013-04-14 08:24:00,61.9,43.6,29.97,SE,144,4.0,0.0,51,0.00,,,0.00,201,WeatherHawk,2013-04-14 13:24:00,
2013-04-14 08:29:00,61.8,43.0,29.97,SSE,147,5.0,0.0,50,0.00,,,0.00,213,WeatherHawk,2013-04-14 13:29:00,
2013-04-14 08:34:00,62.0,42.6,29.96,SSE,151,7.0,-999.0,49,0.00,,,0.00,216,WeatherHawk,2013-04-14 13:34:00,
2013-04-14 08:39:00,62.2,41.7,29.96,SSE,153,6.0,0.0,47,0.00,,,0.00,247,WeatherHawk,2013-04-14 13:39:00,
2013-04-14 08:44:00,63.6,44.1,29.96,ESE,116,4.0,0.0,49,0.00,,,0.00,224,WeatherHawk,2013-04-14 13:44:00,
2013-04-14 08:49:00,62.2,42.8,29.95,SE,130,7.0,-999.0,49,0.00,,,0.00,129,WeatherHawk,2013-04-14 13:49:00,
2013-04-14 08:54:00,65.2,45.0,29.95,SE,131,1.0,0.0,48,0.00,,,0.00,342,WeatherHawk,2013-04-14 13:54:00,
2013-04-14 08:59:00,63.5,43.4,29.95,SSE,161,8.0,0.0,48,0.00,,,0.00,385,WeatherHawk,2013-04-14 13:59:00,
2013-04-14 09:04:00,62.7,42.7,29.95,SSW,193,10.0,0.0,48,0.00,,,0.00,197,WeatherHawk,2013-04-14 14:04:00,
2013-04-14 09:09:00,62.9,44.0,29.95,South,188,6.0,0.0,50,0.00,,,0.00,249,WeatherHawk,2013-04-14 14:09:00,
2013-04-14 09:14:00,62.4,45.1,29.94,South,191,9.0,0.0,53,0.00,,,0.00,135,WeatherHawk,2013-04-14 14:14:00,
2013-04-14 09:19:00,63.1,45.2,29.94,South,177,12.0,0.0,52,0.00,,,0.00,441,WeatherHawk,2013-04-14 14:19:00,
2013-04-14 09:24:00,62.7,43.2,29.94,SE,132,11.0,0.0,49,0.00,,,0.00,186,WeatherHawk,2013-04-14 14:24:00,
2013-04-14 09:29:00,63.8,43.2,29.93,South,177,8.0,-999.0,47,0.00,,,0.00,444,WeatherHawk,2013-04-14 14:29:00,
2013-04-14 09:34:00,64.2,43.0,29.93,South,184,10.0,0.0,46,0.00,,,0.00,491,WeatherHawk,2013-04-14 14:34:00,
2013-04-14 09:39:00,63.6,41.3,29.93,SSE,168,13.0,0.0,44,0.00,,,0.00,459,WeatherHawk,2013-04-14 14:39:00,
2013-04-14 09:44:00,63.5,40.6,29.93,South,173,10.0,0.0,43,0.00,,,0.00,474,WeatherHawk,2013-04-14 14:44:00,
2013-04-14 09:49:00,66.1,41.7,29.94,SE,135,6.0,0.0,41,0.00,,,0.00,488,WeatherHawk,2013-04-14 14:49:00,
2013-04-14 09:54:00,64.1,39.3,29.92,SSE,148,10.0,0.0,40,0.00,,,0.00,498,WeatherHawk,2013-04-14 14:54:00,
2013-04-14 09:59:00,65.1,39.5,29.91,ESE,110,10.0,0.0,39,0.00,,,0.00,518,WeatherHawk,2013-04-14 14:59:00,
2013-04-14 10:04:00,64.4,38.2,29.91,SE,134,14.0,0.0,38,0.00,,,0.00,534,WeatherHawk,2013-04-14 15:04:00,
2013-04-14 10:09:00,64.4,36.9,29.92,SSE,147,8.0,0.0,36,0.00,,,0.00,544,WeatherHawk,2013-04-14 15:09:00,
2013-04-14 10:14:00,65.5,37.1,29.92,SE,134,13.0,0.0,35,0.00,,,0.00,561,WeatherHawk,2013-04-14 15:14:00,
2013-04-14 10:19:00,66.8,36.7,29.91,ESE,117,7.0,0.0,33,0.00,,,0.00,577,WeatherHawk,2013-04-14 15:19:00,
2013-04-14 10:24:00,65.5,36.4,29.91,SE,130,13.0,0.0,34,0.00,,,0.00,588,WeatherHawk,2013-04-14 15:24:00,
2013-04-14 10:29:00,69.3,37.3,29.92,SSE,156,6.0,0.0,31,0.00,,,0.00,605,WeatherHawk,2013-04-14 15:29:00,
2013-04-14 10:34:00,66.4,34.9,29.91,SSE,150,14.0,-999.0,31,0.00,,,0.00,613,WeatherHawk,2013-04-14 15:34:00,
2013-04-14 10:39:00,69.1,36.3,29.91,SE,144,5.0,0.0,30,0.00,,,0.00,629,WeatherHawk,2013-04-14 15:39:00,
2013-04-14 10:44:00,68.2,33.8,29.91,South,182,9.0,0.0,28,0.00,,,0.00,642,WeatherHawk,2013-04-14 15:44:00,
2013-04-14 10:49:00,67.9,33.6,29.91,SSE,147,12.0,0.0,28,0.00,,,0.00,659,WeatherHawk,2013-04-14 15:49:00,
2013-04-14 10:54:00,68.0,34.6,29.91,SSE,164,11.0,0.0,29,0.00,,,0.00,666,WeatherHawk,2013-04-14 15:54:00,
2013-04-14 10:59:00,69.8,35.2,29.91,SE,142,8.0,0.0,28,0.00,,,0.00,682,WeatherHawk,2013-04-14 15:59:00,
2013-04-14 11:05:00,69.0,34.5,29.89,South,173,14.0,0.0,28,0.00,,,0.00,693,WeatherHawk,2013-04-14 16:05:00,
2013-04-14 11:10:00,70.7,35.1,29.90,SSE,147,9.0,0.0,27,0.00,,,0.00,710,WeatherHawk,2013-04-14 16:10:00,
2013-04-14 11:15:00,69.3,32.9,29.88,ESE,120,12.0,0.0,26,0.00,,,0.00,719,WeatherHawk,2013-04-14 16:15:00,
2013-04-14 11:20:00,70.1,34.5,29.88,South,169,9.0,0.0,27,0.00,,,0.00,736,WeatherHawk,2013-04-14 16:20:00,
2013-04-14 11:25:00,70.5,33.0,29.89,SSW,193,12.0,0.0,25,0.00,,,0.00,746,WeatherHawk,2013-04-14 16:25:00,
2013-04-14 11:31:00,71.8,35.1,29.88,WSW,257,9.0,0.0,26,0.00,,,0.00,753,WeatherHawk,2013-04-14 16:31:00,
2013-04-14 11:36:00,70.5,32.0,29.87,SE,126,10.0,0.0,24,0.00,,,0.00,762,WeatherHawk,2013-04-14 16:36:00,
2013-04-14 11:41:00,70.2,34.7,29.88,SE,141,10.0,0.0,27,0.00,,,0.00,776,WeatherHawk,2013-04-14 16:41:00,
2013-04-14 11:47:00,71.4,34.7,29.87,SE,145,14.0,0.0,26,0.00,,,0.00,788,WeatherHawk,2013-04-14 16:47:00,
2013-04-14 11:52:00,72.4,34.6,29.87,SSE,152,10.0,0.0,25,0.00,,,0.00,800,WeatherHawk,2013-04-14 16:52:00,
2013-04-14 11:58:00,73.2,34.2,29.87,SW,222,9.0,0.0,24,0.00,,,0.00,809,WeatherHawk,2013-04-14 16:58:00,
2013-04-14 12:03:00,72.2,34.4,29.87,East,94,7.0,0.0,25,0.00,,,0.00,816,WeatherHawk,2013-04-14 17:03:00,
2013-04-14 12:08:00,73.0,33.0,29.85,SSE,166,7.0,0.0,23,0.00,,,0.00,827,WeatherHawk,2013-04-14 17:08:00,
2013-04-14 12:14:00,74.1,34.0,29.85,South,181,10.0,0.0,23,0.00,,,0.00,837,WeatherHawk,2013-04-14 17:14:00,
2013-04-14 12:19:00,73.4,33.4,29.84,SE,146,11.0,0.0,23,0.00,,,0.00,834,WeatherHawk,2013-04-14 17:19:00,
2013-04-14 12:25:00,76.3,34.6,29.86,ESE,115,8.0,0.0,22,0.00,,,0.00,849,WeatherHawk,2013-04-14 17:25:00,
2013-04-14 12:29:00,73.3,33.3,29.84,ESE,120,13.0,0.0,23,0.00,,,0.00,853,WeatherHawk,2013-04-14 17:29:00,
2013-04-14 12:34:00,74.1,33.9,29.84,SSE,158,11.0,0.0,23,0.00,,,0.00,849,WeatherHawk,2013-04-14 17:34:00,
2013-04-14 12:39:00,74.3,34.1,29.84,SSE,157,8.0,0.0,23,0.00,,,0.00,864,WeatherHawk,2013-04-14 17:39:00,
2013-04-14 12:44:00,74.8,32.3,29.84,SSE,164,12.0,0.0,21,0.00,,,0.00,862,WeatherHawk,2013-04-14 17:44:00,
2013-04-14 12:49:00,75.4,33.9,29.84,East,90,4.0,0.0,22,0.00,,,0.00,874,WeatherHawk,2013-04-14 17:49:00,
2013-04-14 12:54:00,74.8,32.3,29.85,SE,130,12.0,0.0,21,0.00,,,0.00,873,WeatherHawk,2013-04-14 17:54:00,
2013-04-14 12:59:00,76.2,33.4,29.84,SSE,157,8.0,-999.0,21,0.00,,,0.00,884,WeatherHawk,2013-04-14 17:59:00,
2013-04-14 13:04:00,78.0,33.7,29.84,South,170,6.0,0.0,20,0.00,,,0.00,887,WeatherHawk,2013-04-14 18:04:00,
2013-04-14 13:09:00,76.2,32.2,29.82,South,184,14.0,0.0,20,0.00,,,0.00,890,WeatherHawk,2013-04-14 18:09:00,
2013-04-14 13:14:00,76.1,34.5,29.82,SSE,158,12.0,-999.0,22,0.00,,,0.00,899,WeatherHawk,2013-04-14 18:14:00,
2013-04-14 13:19:00,75.6,32.9,29.82,SSE,163,12.0,0.0,21,0.00,,,0.00,894,WeatherHawk,2013-04-14 18:19:00,
2013-04-14 13:24:00,75.4,32.7,29.82,South,186,13.0,0.0,21,0.00,,,0.00,899,WeatherHawk,2013-04-14 18:24:00,
2013-04-14 13:29:00,77.9,34.8,29.81,South,174,8.0,0.0,21,0.00,,,0.00,892,WeatherHawk,2013-04-14 18:29:00,
2013-04-14 13:34:00,76.6,32.5,29.81,SSE,161,9.0,0.0,20,0.00,,,0.00,899,WeatherHawk,2013-04-14 18:34:00,
2013-04-14 13:39:00,75.9,34.3,29.81,South,170,16.0,0.0,22,0.00,,,0.00,909,WeatherHawk,2013-04-14 18:39:00,
2013-04-14 13:44:00,77.6,33.3,29.81,SSW,200,9.0,0.0,20,0.00,,,0.00,909,WeatherHawk,2013-04-14 18:44:00,
2013-04-14 13:49:00,76.8,32.7,29.80,South,187,13.0,0.0,20,0.00,,,0.00,899,WeatherHawk,2013-04-14 18:49:00,
2013-04-14 13:54:00,77.4,34.4,29.81,ESE,107,11.0,0.0,21,0.00,,,0.00,903,WeatherHawk,2013-04-14 18:54:00,
2013-04-14 13:59:00,78.1,35.0,29.80,SSW,212,10.0,0.0,21,0.00,,,0.00,896,WeatherHawk,2013-04-14 18:59:00,
2013-04-14 14:04:00,77.5,34.5,29.80,ESE,113,7.0,0.0,21,0.00,,,0.00,930,WeatherHawk,2013-04-14 19:04:00,
2013-04-14 14:09:00,79.4,34.8,29.77,SSW,194,8.0,0.0,20,0.00,,,0.00,926,WeatherHawk,2013-04-14 19:09:00,
2013-04-14 14:14:00,78.6,34.2,29.81,SE,142,6.0,0.0,20,0.00,,,0.00,879,WeatherHawk,2013-04-14 19:14:00,
2013-04-14 14:19:00,76.3,32.3,29.78,SE,137,14.0,0.0,20,0.00,,,0.00,893,WeatherHawk,2013-04-14 19:19:00,
2013-04-14 14:24:00,80.0,35.3,29.80,SW,218,8.0,0.0,20,0.00,,,0.00,895,WeatherHawk,2013-04-14 19:24:00,
2013-04-14 14:29:00,79.3,34.8,29.79,South,182,11.0,0.0,20,0.00,,,0.00,886,WeatherHawk,2013-04-14 19:29:00,
2013-04-14 14:34:00,78.9,34.4,29.78,SE,134,11.0,0.0,20,0.00,,,0.00,869,WeatherHawk,2013-04-14 19:34:00,
2013-04-14 14:39:00,80.1,35.4,29.78,SSW,202,12.0,0.0,20,0.00,,,0.00,863,WeatherHawk,2013-04-14 19:39:00,
2013-04-14 14:44:00,78.6,32.9,29.77,South,174,7.0,0.0,19,0.00,,,0.00,857,WeatherHawk,2013-04-14 19:44:00,
2013-04-14 14:49:00,79.2,33.4,29.78,South,190,10.0,-999.0,19,0.00,,,0.00,844,WeatherHawk,2013-04-14 19:49:00,
2013-04-14 14:54:00,80.5,33.1,29.78,SSE,167,8.0,0.0,18,0.00,,,0.00,852,WeatherHawk,2013-04-14 19:54:00,
2013-04-14 14:59:00,79.4,32.2,29.78,SSE,151,10.0,-999.0,18,0.00,,,0.00,849,WeatherHawk,2013-04-14 19:59:00,
2013-04-14 15:04:00,81.5,33.9,29.78,SE,133,7.0,0.0,18,0.00,,,0.00,837,WeatherHawk,2013-04-14 20:04:00,
2013-04-14 15:09:00,81.1,33.6,29.79,SSW,204,10.0,0.0,18,0.00,,,0.00,832,WeatherHawk,2013-04-14 20:09:00,
2013-04-14 15:14:00,80.8,31.9,29.78,SSE,156,9.0,0.0,17,0.00,,,0.00,819,WeatherHawk,2013-04-14 20:14:00,
2013-04-14 15:19:00,82.0,34.3,29.77,South,185,8.0,0.0,18,0.00,,,0.00,824,WeatherHawk,2013-04-14 20:19:00,
2013-04-14 15:24:00,78.4,34.0,29.77,South,177,13.0,0.0,20,0.00,,,0.00,200,WeatherHawk,2013-04-14 20:24:00,
2013-04-14 15:29:00,80.9,33.4,29.78,South,170,12.0,0.0,18,0.00,,,0.00,793,WeatherHawk,2013-04-14 20:29:00,
2013-04-14 15:34:00,80.6,34.5,29.77,SSW,197,10.0,-999.0,19,0.00,,,0.00,771,WeatherHawk,2013-04-14 20:34:00,
2013-04-14 15:39:00,81.1,35.0,29.77,SSW,193,10.0,0.0,19,0.00,,,0.00,793,WeatherHawk,2013-04-14 20:39:00,
2013-04-14 15:44:00,80.4,33.0,29.76,South,180,12.0,-999.0,18,0.00,,,0.00,747,WeatherHawk,2013-04-14 20:44:00,
2013-04-14 15:49:00,81.0,34.8,29.75,South,182,11.0,0.0,19,0.00,,,0.00,760,WeatherHawk,2013-04-14 20:49:00,
2013-04-14 15:54:00,80.1,35.4,29.75,SE,135,14.0,0.0,20,0.00,,,0.00,733,WeatherHawk,2013-04-14 20:54:00,
2013-04-14 15:59:00,80.7,34.6,29.76,South,187,15.0,0.0,19,0.00,,,0.00,734,WeatherHawk,2013-04-14 20:59:00,
2013-04-14 16:04:00,80.8,34.7,29.75,South,181,10.0,0.0,19,0.00,,,0.00,725,WeatherHawk,2013-04-14 21:04:00,
2013-04-14 16:09:00,80.8,34.7,29.74,SE,125,10.0,-999.0,19,0.00,,,0.00,690,WeatherHawk,2013-04-14 21:09:00,
2013-04-14 16:14:00,81.1,36.2,29.73,SSE,151,11.0,0.0,20,0.00,,,0.00,678,WeatherHawk,2013-04-14 21:14:00,
2013-04-14 16:19:00,80.8,36.0,29.74,SE,125,10.0,0.0,20,0.00,,,0.00,679,WeatherHawk,2013-04-14 21:19:00,
2013-04-14 16:24:00,80.3,35.6,29.75,SE,132,15.0,0.0,20,0.00,,,0.00,659,WeatherHawk,2013-04-14 21:24:00,
2013-04-14 16:29:00,81.2,37.5,29.75,South,171,9.0,-999.0,21,0.00,,,0.00,638,WeatherHawk,2013-04-14 21:29:00,
2013-04-14 16:35:00,81.5,36.6,29.76,SSW,209,8.0,0.0,20,0.00,,,0.00,631,WeatherHawk,2013-04-14 21:35:00,
2013-04-14 16:40:00,81.5,36.5,29.75,SE,137,10.0,0.0,20,0.00,,,0.00,614,WeatherHawk,2013-04-14 21:40:00,
2013-04-14 16:45:00,81.5,37.8,29.74,East,101,8.0,0.0,21,0.00,,,0.00,597,WeatherHawk,2013-04-14 21:45:00,
2013-04-14 16:50:00,81.8,39.2,29.74,SSW,194,6.0,0.0,22,0.00,,,0.00,581,WeatherHawk,2013-04-14 21:50:00,
2013-04-14 16:55:00,80.5,37.0,29.74,ESE,107,12.0,0.0,21,0.00,,,0.00,557,WeatherHawk,2013-04-14 21:55:00,
2013-04-14 17:01:00,80.8,38.4,29.74,SSE,154,12.0,0.0,22,0.00,,,0.00,543,WeatherHawk,2013-04-14 22:01:00,
2013-04-14 17:07:00,80.1,38.9,29.75,ESE,120,9.0,0.0,23,0.00,,,0.00,530,WeatherHawk,2013-04-14 22:07:00,
2013-04-14 17:12:00,80.4,39.2,29.75,SSE,151,11.0,0.0,23,0.00,,,0.00,512,WeatherHawk,2013-04-14 22:12:00,
2013-04-14 17:17:00,80.3,39.1,29.73,SSE,155,13.0,0.0,23,0.00,,,0.00,499,WeatherHawk,2013-04-14 22:17:00,
2013-04-14 17:23:00,80.4,40.2,29.73,East,96,6.0,0.0,24,0.00,,,0.00,477,WeatherHawk,2013-04-14 22:23:00,
2013-04-14 17:28:00,79.5,38.4,29.74,SE,134,17.0,0.0,23,0.00,,,0.00,464,WeatherHawk,2013-04-14 22:28:00,
2013-04-14 17:33:00,80.5,40.4,29.75,South,181,9.0,0.0,24,0.00,,,0.00,447,WeatherHawk,2013-04-14 22:33:00,
2013-04-14 17:38:00,79.3,40.4,29.73,SSE,161,12.0,0.0,25,0.00,,,0.00,430,WeatherHawk,2013-04-14 22:38:00,
2013-04-14 17:43:00,79.1,41.3,29.72,East,89,18.0,0.0,26,0.00,,,0.00,412,WeatherHawk,2013-04-14 22:43:00,
2013-04-14 17:48:00,80.0,42.0,29.73,South,181,13.0,0.0,26,0.00,,,0.00,394,WeatherHawk,2013-04-14 22:48:00,
2013-04-14 17:54:00,78.4,41.6,29.73,ESE,114,11.0,0.0,27,0.00,,,0.00,377,WeatherHawk,2013-04-14 22:54:00,
2013-04-14 17:59:00,78.8,42.9,29.72,SE,145,16.0,0.0,28,0.00,,,0.00,353,WeatherHawk,2013-04-14 22:59:00,
2013-04-14 18:04:00,78.4,42.6,29.74,ESE,109,14.0,0.0,28,0.00,,,0.00,341,WeatherHawk,2013-04-14 23:04:00,
2013-04-14 18:09:00,78.8,42.9,29.73,SE,134,13.0,0.0,28,0.00,,,0.00,327,WeatherHawk,2013-04-14 23:09:00,
2013-04-14 18:14:00,78.7,42.8,29.74,SSE,152,13.0,0.0,28,0.00,,,0.00,314,WeatherHawk,2013-04-14 23:14:00,
2013-04-14 18:19:00,79.2,44.1,29.74,ESE,122,10.0,0.0,29,0.00,,,0.00,294,WeatherHawk,2013-04-14 23:19:00,
2013-04-14 18:24:00,79.0,43.1,29.73,ESE,116,10.0,0.0,28,0.00,,,0.00,271,WeatherHawk,2013-04-14 23:24:00,
2013-04-14 18:29:00,78.7,42.9,29.75,SE,131,14.0,0.0,28,0.00,,,0.00,259,WeatherHawk,2013-04-14 23:29:00,
2013-04-14 18:34:00,77.9,43.1,29.74,SE,124,14.0,0.0,29,0.00,,,0.00,243,WeatherHawk,2013-04-14 23:34:00,
2013-04-14 18:39:00,78.8,44.7,29.74,East,96,5.0,-999.0,30,0.00,,,0.00,222,WeatherHawk,2013-04-14 23:39:00,
2013-04-14 18:44:00,77.7,43.8,29.74,ESE,111,11.0,0.0,30,0.00,,,0.00,207,WeatherHawk,2013-04-14 23:44:00,
2013-04-14 18:49:00,78.0,44.0,29.73,SE,139,6.0,0.0,30,0.00,,,0.00,180,WeatherHawk,2013-04-14 23:49:00,
2013-04-14 18:54:00,77.9,43.9,29.75,SE,141,11.0,0.0,30,0.00,,,0.00,164,WeatherHawk,2013-04-14 23:54:00,
2013-04-14 18:59:00,78.1,45.0,29.74,SSE,147,5.0,0.0,31,0.00,,,0.00,151,WeatherHawk,2013-04-14 23:59:00,
2013-04-14 19:04:00,78.0,44.9,29.75,SSE,153,9.0,-999.0,31,0.00,,,0.00,143,WeatherHawk,2013-04-15 00:04:00,
2013-04-14 19:09:00,77.5,44.5,29.74,SSE,151,15.0,0.0,31,0.00,,,0.00,124,WeatherHawk,2013-04-15 00:09:00,
2013-04-14 19:15:00,77.6,45.3,29.75,SE,133,13.0,-999.0,32,0.00,,,0.00,104,WeatherHawk,2013-04-15 00:15:00,
2013-04-14 19:20:00,77.4,45.2,29.76,SE,138,11.0,0.0,32,0.00,,,0.00,81,WeatherHawk,2013-04-15 00:20:00,
2013-04-14 19:26:00,77.4,45.2,29.75,ENE,60,11.0,0.0,32,0.00,,,0.00,68,WeatherHawk,2013-04-15 00:26:00,
2013-04-14 19:31:00,77.2,45.8,29.76,SE,138,4.0,0.0,33,0.00,,,0.00,52,WeatherHawk,2013-04-15 00:31:00,
2013-04-14 19:36:00,77.0,45.7,29.75,SE,141,9.0,0.0,33,0.00,,,0.00,40,WeatherHawk,2013-04-15 00:36:00,
2013-04-14 19:41:00,77.0,45.7,29.76,SSE,161,10.0,0.0,33,0.00,,,0.00,26,WeatherHawk,2013-04-15 00:41:00,
2013-04-14 19:46:00,76.8,46.3,29.77,SSE,161,7.0,0.0,34,0.00,,,0.00,15,WeatherHawk,2013-04-15 00:46:00,
2013-04-14 19:51:00,76.7,46.2,29.76,SE,140,10.0,0.0,34,0.00,,,0.00,9,WeatherHawk,2013-04-15 00:51:00,
2013-04-14 19:56:00,76.2,46.5,29.76,SW,218,7.0,0.0,35,0.00,,,0.00,6,WeatherHawk,2013-04-15 00:56:00,
2013-04-14 20:01:00,76.3,46.6,29.77,ESE,119,6.0,0.0,35,0.00,,,0.00,3,WeatherHawk,2013-04-15 01:01:00,
2013-04-14 20:06:00,76.1,46.4,29.75,SE,124,11.0,0.0,35,0.00,,,0.00,2,WeatherHawk,2013-04-15 01:06:00,
2013-04-14 20:11:00,76.0,47.1,29.76,SE,134,11.0,0.0,36,0.00,,,0.00,1,WeatherHawk,2013-04-15 01:11:00,
2013-04-14 20:16:00,75.7,46.8,29.76,ESE,109,9.0,0.0,36,0.00,,,0.00,1,WeatherHawk,2013-04-15 01:16:00,
2013-04-14 20:22:00,75.6,46.8,29.78,SE,129,6.0,0.0,36,0.00,,,0.00,0,WeatherHawk,2013-04-15 01:22:00,
2013-04-14 20:27:00,75.4,47.3,29.77,ESE,122,5.0,0.0,37,0.00,,,0.00,0,WeatherHawk,2013-04-15 01:27:00,
2013-04-14 20:33:00,75.4,47.3,29.78,ESE,114,10.0,0.0,37,0.00,,,0.00,0,WeatherHawk,2013-04-15 01:33:00,
2013-04-14 20:38:00,75.2,47.8,29.78,East,86,7.0,0.0,38,0.00,,,0.00,0,WeatherHawk,2013-04-15 01:38:00,
2013-04-14 20:44:00,75.0,47.7,29.78,East,86,4.0,0.0,38,0.00,,,0.00,0,WeatherHawk,2013-04-15 01:44:00,
2013-04-14 20:49:00,74.9,47.6,29.78,SE,138,9.0,-999.0,38,0.00,,,0.00,0,WeatherHawk,2013-04-15 01:49:00,
2013-04-14 20:54:00,74.7,47.4,29.78,East,95,3.0,0.0,38,0.00,,,0.00,1,WeatherHawk,2013-04-15 01:54:00,
2013-04-14 20:59:00,75.0,47.6,29.78,SE,139,8.0,0.0,38,0.00,,,0.00,0,WeatherHawk,2013-04-15 01:59:00,
2013-04-14 21:04:00,74.7,47.4,29.79,East,91,9.0,0.0,38,0.00,,,0.00,0,WeatherHawk,2013-04-15 02:04:00,
2013-04-14 21:09:00,74.8,47.5,29.78,SE,130,10.0,0.0,38,0.00,,,0.00,0,WeatherHawk,2013-04-15 02:09:00,
2013-04-14 21:14:00,74.7,48.0,29.80,ESE,114,10.0,0.0,39,0.00,,,0.00,0,WeatherHawk,2013-04-15 02:14:00,
2013-04-14 21:19:00,74.5,47.9,29.79,SSE,150,6.0,0.0,39,0.00,,,0.00,0,WeatherHawk,2013-04-15 02:19:00,
2013-04-14 21:24:00,74.5,47.9,29.79,SE,135,8.0,0.0,39,0.00,,,0.00,1,WeatherHawk,2013-04-15 02:24:00,
2013-04-14 21:29:00,74.4,47.8,29.79,ESE,115,8.0,0.0,39,0.00,,,0.00,0,WeatherHawk,2013-04-15 02:29:00,
2013-04-14 21:35:00,74.5,47.9,29.79,SE,131,11.0,0.0,39,0.00,,,0.00,0,WeatherHawk,2013-04-15 02:35:00,
2013-04-14 21:39:00,74.2,48.3,29.80,ESE,122,5.0,-999.0,40,0.00,,,0.00,0,WeatherHawk,2013-04-15 02:39:00,
2013-04-14 21:44:00,73.9,48.1,29.79,SSW,207,7.0,0.0,40,0.00,,,0.00,0,WeatherHawk,2013-04-15 02:44:00,
2013-04-14 21:49:00,73.9,48.0,29.80,ESE,112,9.0,0.0,40,0.00,,,0.00,1,WeatherHawk,2013-04-15 02:49:00,
2013-04-14 21:54:00,73.6,48.4,29.79,ESE,118,9.0,0.0,41,0.00,,,0.00,0,WeatherHawk,2013-04-15 02:54:00,
2013-04-14 21:59:00,73.7,49.2,29.79,SE,131,7.0,0.0,42,0.00,,,0.00,0,WeatherHawk,2013-04-15 02:59:00,
2013-04-14 22:04:00,73.3,48.8,29.81,ENE,75,6.0,0.0,42,0.00,,,0.00,0,WeatherHawk,2013-04-15 03:04:00,
2013-04-14 22:09:00,73.6,49.7,29.80,SSE,148,9.0,-999.0,43,0.00,,,0.00,0,WeatherHawk,2013-04-15 03:09:00,
2013-04-14 22:14:00,73.4,49.5,29.81,SE,125,8.0,0.0,43,0.00,,,0.00,0,WeatherHawk,2013-04-15 03:14:00,
2013-04-14 22:19:00,73.3,49.5,29.81,East,83,10.0,0.0,43,0.00,,,0.00,0,WeatherHawk,2013-04-15 03:19:00,
2013-04-14 22:24:00,73.6,50.3,29.81,SSE,148,12.0,0.0,44,0.00,,,0.00,0,WeatherHawk,2013-04-15 03:24:00,
2013-04-14 22:29:00,73.0,49.8,29.82,ENE,78,4.0,-999.0,44,0.00,,,0.00,1,WeatherHawk,2013-04-15 03:29:00,
2013-04-14 22:34:00,73.2,50.6,29.81,SE,127,13.0,0.0,45,0.00,,,0.00,0,WeatherHawk,2013-04-15 03:34:00,
2013-04-14 22:39:00,73.0,49.8,29.81,SSE,164,7.0,0.0,44,0.00,,,0.00,1,WeatherHawk,2013-04-15 03:39:00,
2013-04-14 22:44:00,73.2,50.6,29.82,ESE,121,8.0,0.0,45,0.00,,,0.00,0,WeatherHawk,2013-04-15 03:44:00,
2013-04-14 22:49:00,73.3,50.1,29.82,SE,138,9.0,0.0,44,0.00,,,0.00,0,WeatherHawk,2013-04-15 03:49:00,
2013-04-14 22:54:00,73.2,50.6,29.81,ESE,113,8.0,0.0,45,0.00,,,0.00,0,WeatherHawk,2013-04-15 03:54:00,
2013-04-14 22:59:00,73.2,50.5,29.82,ESE,123,11.0,0.0,45,0.00,,,0.00,1,WeatherHawk,2013-04-15 03:59:00,
2013-04-14 23:00:00,73.2,50.6,29.82,SSE,153,13.0,0.0,45,0.00,,,0.00,0,WeatherHawk,2013-04-15 04:00:00,
2013-04-14 23:01:00,72.9,50.3,29.81,SE,124,9.0,0.0,45,0.00,,,0.00,0,WeatherHawk,2013-04-15 04:01:00,
2013-04-14 23:02:00,72.9,50.3,29.82,ESE,109,10.0,0.0,45,0.00,,,0.00,0,WeatherHawk,2013-04-15 04:02:00,
2013-04-14 23:03:00,73.0,50.4,29.81,SE,144,13.0,0.0,45,0.00,,,0.00,1,WeatherHawk,2013-04-15 04:03:00,
2013-04-14 23:08:00,72.7,50.7,29.82,SSE,151,9.0,0.0,46,0.00,,,0.00,0,WeatherHawk,2013-04-15 04:08:00,
2013-04-14 23:13:00,72.5,50.5,29.82,SE,139,12.0,0.0,46,0.00,,,0.00,1,WeatherHawk,2013-04-15 04:13:00,
2013-04-14 23:18:00,72.4,51.0,29.81,SE,137,11.0,0.0,47,0.00,,,0.00,1,WeatherHawk,2013-04-15 04:18:00,
2013-04-14 23:23:00,72.0,51.2,29.82,SSE,153,6.0,0.0,48,0.00,,,0.00,0,WeatherHawk,2013-04-15 04:23:00,
2013-04-14 23:28:00,71.8,51.6,29.82,ESE,110,12.0,0.0,49,0.00,,,0.00,1,WeatherHawk,2013-04-15 04:28:00,
2013-04-14 23:34:00,71.6,52.0,29.81,South,178,5.0,0.0,50,0.00,,,0.00,0,WeatherHawk,2013-04-15 04:34:00,
2013-04-14 23:39:00,71.6,51.9,29.82,ESE,122,9.0,0.0,50,0.00,,,0.00,0,WeatherHawk,2013-04-15 04:39:00,
2013-04-14 23:44:00,71.8,52.7,29.82,SE,140,10.0,0.0,51,0.00,,,0.00,0,WeatherHawk,2013-04-15 04:44:00,
2013-04-14 23:49:00,71.3,52.7,29.82,SE,132,10.0,0.0,52,0.00,,,0.00,0,WeatherHawk,2013-04-15 04:49:00,
2013-04-14 23:54:00,71.0,52.5,29.81,South,182,4.0,-999.0,52,0.00,,,0.00,0,WeatherHawk,2013-04-15 04:54:00,
2013-04-14 23:59:00,71.2,53.2,29.81,ESE,106,9.0,-999.0,53,0.00,,,0.00,0,WeatherHawk,2013-04-15 04:59:00,